sensor_id;sensor_type;location;lat;lon;timestamp;P1;durP1;ratioP1;P2;durP2;ratioP2
71360;SDS011;59166;48.908;1.870;2023-04-26T00:03:08;13.10;;;4.90;;
71360;SDS011;59166;48.908;1.870;2023-04-26T00:08:09;14.37;;;4.50;;
71360;SDS011;59166;48.908;1.870;2023-04-26T00:13:11;13.52;;;4.70;;
71360;SDS011;59166;48.908;1.870;2023-04-26T00:18:12;12.43;;;4.13;;
71360;SDS011;59166;48.908;1.870;2023-04-26T00:23:13;13.73;;;5.07;;
71360;SDS011;59166;48.908;1.870;2023-04-26T00:28:15;12.93;;;4.30;;
71360;SDS011;59166;48.908;1.870;2023-04-26T00:33:16;11.23;;;3.92;;
71360;SDS011;59166;48.908;1.870;2023-04-26T00:38:17;10.97;;;4.50;;
71360;SDS011;59166;48.908;1.870;2023-04-26T00:43:19;10.15;;;3.65;;
71360;SDS011;59166;48.908;1.870;2023-04-26T00:48:20;11.30;;;4.53;;
71360;SDS011;59166;48.908;1.870;2023-04-26T00:53:20;11.70;;;4.13;;
71360;SDS011;59166;48.908;1.870;2023-04-26T00:58:23;13.57;;;4.47;;
71360;SDS011;59166;48.908;1.870;2023-04-26T01:03:25;14.47;;;4.70;;
71360;SDS011;59166;48.908;1.870;2023-04-26T01:08:26;12.88;;;5.00;;
71360;SDS011;59166;48.908;1.870;2023-04-26T01:13:28;13.38;;;4.65;;
71360;SDS011;59166;48.908;1.870;2023-04-26T01:18:31;14.03;;;4.90;;
71360;SDS011;59166;48.908;1.870;2023-04-26T01:23:33;11.45;;;4.40;;
71360;SDS011;59166;48.908;1.870;2023-04-26T01:28:34;14.37;;;4.80;;
71360;SDS011;59166;48.908;1.870;2023-04-26T01:33:35;13.17;;;4.50;;
71360;SDS011;59166;48.908;1.870;2023-04-26T01:38:37;12.02;;;4.93;;
71360;SDS011;59166;48.908;1.870;2023-04-26T01:43:38;12.67;;;4.63;;
71360;SDS011;59166;48.908;1.870;2023-04-26T01:48:39;12.00;;;4.75;;
71360;SDS011;59166;48.908;1.870;2023-04-26T01:53:41;12.17;;;4.50;;
71360;SDS011;59166;48.908;1.870;2023-04-26T01:58:42;14.15;;;4.97;;
71360;SDS011;59166;48.908;1.870;2023-04-26T02:03:43;11.80;;;4.80;;
71360;SDS011;59166;48.908;1.870;2023-04-26T02:08:45;7.13;;;2.53;;
71360;SDS011;59166;48.908;1.870;2023-04-26T02:13:46;11.70;;;4.43;;
71360;SDS011;59166;48.908;1.870;2023-04-26T02:18:46;11.83;;;4.27;;
71360;SDS011;59166;48.908;1.870;2023-04-26T02:23:49;13.17;;;4.27;;
71360;SDS011;59166;48.908;1.870;2023-04-26T02:28:50;10.27;;;3.93;;
71360;SDS011;59166;48.908;1.870;2023-04-26T02:33:50;10.98;;;3.85;;
71360;SDS011;59166;48.908;1.870;2023-04-26T02:38:53;11.77;;;4.00;;
71360;SDS011;59166;48.908;1.870;2023-04-26T02:43:54;12.25;;;5.07;;
71360;SDS011;59166;48.908;1.870;2023-04-26T02:48:54;15.43;;;4.90;;
71360;SDS011;59166;48.908;1.870;2023-04-26T02:53:57;10.98;;;4.10;;
71360;SDS011;59166;48.908;1.870;2023-04-26T02:58:57;12.73;;;4.97;;
71360;SDS011;59166;48.908;1.870;2023-04-26T03:03:58;14.40;;;4.80;;
71360;SDS011;59166;48.908;1.870;2023-04-26T03:09:00;11.07;;;4.53;;
71360;SDS011;59166;48.908;1.870;2023-04-26T03:14:01;12.35;;;4.60;;
71360;SDS011;59166;48.908;1.870;2023-04-26T03:19:02;12.70;;;4.17;;
71360;SDS011;59166;48.908;1.870;2023-04-26T03:24:05;13.27;;;4.82;;
71360;SDS011;59166;48.908;1.870;2023-04-26T03:29:06;9.87;;;4.10;;
71360;SDS011;59166;48.908;1.870;2023-04-26T03:34:06;12.27;;;4.60;;
71360;SDS011;59166;48.908;1.870;2023-04-26T03:39:09;10.70;;;4.33;;
71360;SDS011;59166;48.908;1.870;2023-04-26T03:44:10;12.73;;;4.30;;
71360;SDS011;59166;48.908;1.870;2023-04-26T03:49:13;12.05;;;4.15;;
71360;SDS011;59166;48.908;1.870;2023-04-26T03:54:15;10.93;;;3.97;;
71360;SDS011;59166;48.908;1.870;2023-04-26T03:59:16;13.25;;;4.72;;
71360;SDS011;59166;48.908;1.870;2023-04-26T04:04:17;13.50;;;4.87;;
71360;SDS011;59166;48.908;1.870;2023-04-26T04:09:19;14.57;;;4.90;;
71360;SDS011;59166;48.908;1.870;2023-04-26T04:14:20;13.50;;;4.07;;
71360;SDS011;59166;48.908;1.870;2023-04-26T04:19:21;12.77;;;5.13;;
71360;SDS011;59166;48.908;1.870;2023-04-26T04:24:23;13.63;;;4.90;;
71360;SDS011;59166;48.908;1.870;2023-04-26T04:29:24;12.55;;;4.45;;
71360;SDS011;59166;48.908;1.870;2023-04-26T04:34:25;13.20;;;5.00;;
71360;SDS011;59166;48.908;1.870;2023-04-26T04:39:27;10.43;;;4.40;;
71360;SDS011;59166;48.908;1.870;2023-04-26T04:44:29;14.45;;;4.68;;
71360;SDS011;59166;48.908;1.870;2023-04-26T04:49:30;12.77;;;4.73;;
71360;SDS011;59166;48.908;1.870;2023-04-26T04:54:32;13.27;;;4.55;;
71360;SDS011;59166;48.908;1.870;2023-04-26T04:59:33;13.43;;;5.30;;
71360;SDS011;59166;48.908;1.870;2023-04-26T05:04:34;13.20;;;5.00;;
71360;SDS011;59166;48.908;1.870;2023-04-26T05:09:36;11.97;;;5.03;;
71360;SDS011;59166;48.908;1.870;2023-04-26T05:14:36;14.30;;;5.25;;
71360;SDS011;59166;48.908;1.870;2023-04-26T05:19:37;13.97;;;4.57;;
71360;SDS011;59166;48.908;1.870;2023-04-26T05:24:40;13.48;;;4.95;;
71360;SDS011;59166;48.908;1.870;2023-04-26T05:29:43;14.20;;;4.60;;
71360;SDS011;59166;48.908;1.870;2023-04-26T05:34:44;10.98;;;4.70;;
71360;SDS011;59166;48.908;1.870;2023-04-26T05:39:46;13.98;;;5.10;;
71360;SDS011;59166;48.908;1.870;2023-04-26T05:44:47;11.03;;;4.53;;
71360;SDS011;59166;48.908;1.870;2023-04-26T05:49:48;13.10;;;5.38;;
71360;SDS011;59166;48.908;1.870;2023-04-26T05:54:50;14.07;;;5.17;;
71360;SDS011;59166;48.908;1.870;2023-04-26T05:59:51;11.85;;;4.90;;
71360;SDS011;59166;48.908;1.870;2023-04-26T06:04:51;13.30;;;4.68;;
71360;SDS011;59166;48.908;1.870;2023-04-26T06:09:54;12.03;;;5.10;;
71360;SDS011;59166;48.908;1.870;2023-04-26T06:14:55;12.85;;;4.57;;
71360;SDS011;59166;48.908;1.870;2023-04-26T06:19:56;11.53;;;4.67;;
71360;SDS011;59166;48.908;1.870;2023-04-26T06:24:58;14.13;;;5.28;;
71360;SDS011;59166;48.908;1.870;2023-04-26T06:29:59;12.73;;;4.90;;
71360;SDS011;59166;48.908;1.870;2023-04-26T06:35:00;12.43;;;4.77;;
71360;SDS011;59166;48.908;1.870;2023-04-26T06:40:02;13.00;;;4.97;;
71360;SDS011;59166;48.908;1.870;2023-04-26T06:45:04;12.73;;;5.20;;
71360;SDS011;59166;48.908;1.870;2023-04-26T06:50:06;12.27;;;5.13;;
71360;SDS011;59166;48.908;1.870;2023-04-26T06:55:10;12.40;;;4.88;;
71360;SDS011;59166;48.908;1.870;2023-04-26T07:00:11;13.50;;;5.38;;
71360;SDS011;59166;48.908;1.870;2023-04-26T07:05:13;15.33;;;5.73;;
71360;SDS011;59166;48.908;1.870;2023-04-26T07:10:15;13.27;;;4.82;;
71360;SDS011;59166;48.908;1.870;2023-04-26T07:15:16;13.53;;;4.80;;
71360;SDS011;59166;48.908;1.870;2023-04-26T07:20:17;10.33;;;4.70;;
71360;SDS011;59166;48.908;1.870;2023-04-26T07:25:19;14.53;;;5.30;;
71360;SDS011;59166;48.908;1.870;2023-04-26T07:30:20;13.98;;;4.88;;
71360;SDS011;59166;48.908;1.870;2023-04-26T07:35:21;12.20;;;4.90;;
71360;SDS011;59166;48.908;1.870;2023-04-26T07:40:23;12.77;;;4.67;;
71360;SDS011;59166;48.908;1.870;2023-04-26T07:45:24;13.65;;;5.20;;
71360;SDS011;59166;48.908;1.870;2023-04-26T07:50:25;12.90;;;5.17;;
71360;SDS011;59166;48.908;1.870;2023-04-26T07:55:27;12.68;;;5.50;;
71360;SDS011;59166;48.908;1.870;2023-04-26T08:00:28;14.17;;;5.20;;
71360;SDS011;59166;48.908;1.870;2023-04-26T08:05:29;13.13;;;5.20;;
71360;SDS011;59166;48.908;1.870;2023-04-26T08:10:31;11.07;;;5.10;;
71360;SDS011;59166;48.908;1.870;2023-04-26T08:15:32;12.65;;;4.93;;
71360;SDS011;59166;48.908;1.870;2023-04-26T08:20:33;13.30;;;4.67;;
71360;SDS011;59166;48.908;1.870;2023-04-26T08:25:35;13.33;;;4.50;;
71360;SDS011;59166;48.908;1.870;2023-04-26T08:30:36;15.65;;;4.60;;
71360;SDS011;59166;48.908;1.870;2023-04-26T08:35:37;12.57;;;4.50;;
71360;SDS011;59166;48.908;1.870;2023-04-26T08:40:39;11.38;;;4.53;;
71360;SDS011;59166;48.908;1.870;2023-04-26T08:45:43;12.10;;;4.50;;
71360;SDS011;59166;48.908;1.870;2023-04-26T08:50:45;14.85;;;5.00;;
71360;SDS011;59166;48.908;1.870;2023-04-26T08:55:49;12.00;;;4.28;;
71360;SDS011;59166;48.908;1.870;2023-04-26T09:00:50;12.03;;;4.10;;
71360;SDS011;59166;48.908;1.870;2023-04-26T09:05:52;12.40;;;4.40;;
71360;SDS011;59166;48.908;1.870;2023-04-26T09:10:57;10.50;;;4.15;;
71360;SDS011;59166;48.908;1.870;2023-04-26T09:16:01;13.20;;;4.68;;
71360;SDS011;59166;48.908;1.870;2023-04-26T09:21:03;12.60;;;4.10;;
71360;SDS011;59166;48.908;1.870;2023-04-26T09:26:15;13.23;;;4.55;;
71360;SDS011;59166;48.908;1.870;2023-04-26T09:31:34;13.05;;;4.20;;
71360;SDS011;59166;48.908;1.870;2023-04-26T09:36:45;13.43;;;4.33;;
71360;SDS011;59166;48.908;1.870;2023-04-26T09:41:52;11.90;;;4.35;;
71360;SDS011;59166;48.908;1.870;2023-04-26T09:46:56;12.38;;;4.68;;
71360;SDS011;59166;48.908;1.870;2023-04-26T09:52:01;15.40;;;4.37;;
71360;SDS011;59166;48.908;1.870;2023-04-26T09:57:04;10.73;;;3.90;;
71360;SDS011;59166;48.908;1.870;2023-04-26T10:02:05;11.00;;;4.18;;
71360;SDS011;59166;48.908;1.870;2023-04-26T10:07:13;11.98;;;3.78;;
71360;SDS011;59166;48.908;1.870;2023-04-26T10:12:17;10.00;;;3.30;;
71360;SDS011;59166;48.908;1.870;2023-04-26T10:17:19;9.95;;;3.40;;
71360;SDS011;59166;48.908;1.870;2023-04-26T10:22:20;9.05;;;3.17;;
71360;SDS011;59166;48.908;1.870;2023-04-26T10:38:15;10.95;;;3.20;;
71360;SDS011;59166;48.908;1.870;2023-04-26T10:43:29;9.77;;;2.97;;
71360;SDS011;59166;48.908;1.870;2023-04-26T10:48:30;8.73;;;3.00;;
71360;SDS011;59166;48.908;1.870;2023-04-26T10:53:31;8.77;;;3.17;;
71360;SDS011;59166;48.908;1.870;2023-04-26T10:59:07;8.50;;;3.03;;
71360;SDS011;59166;48.908;1.870;2023-04-26T11:04:09;9.35;;;3.20;;
71360;SDS011;59166;48.908;1.870;2023-04-26T11:09:33;7.97;;;2.83;;
71360;SDS011;59166;48.908;1.870;2023-04-26T11:14:36;9.80;;;2.80;;
71360;SDS011;59166;48.908;1.870;2023-04-26T11:19:37;9.90;;;3.00;;
71360;SDS011;59166;48.908;1.870;2023-04-26T11:24:43;8.50;;;3.15;;
71360;SDS011;59166;48.908;1.870;2023-04-26T11:29:46;9.40;;;3.23;;
71360;SDS011;59166;48.908;1.870;2023-04-26T11:34:48;8.93;;;2.80;;
71360;SDS011;59166;48.908;1.870;2023-04-26T11:39:49;7.87;;;2.77;;
71360;SDS011;59166;48.908;1.870;2023-04-26T11:44:51;9.70;;;3.35;;
71360;SDS011;59166;48.908;1.870;2023-04-26T11:49:52;8.25;;;3.10;;
71360;SDS011;59166;48.908;1.870;2023-04-26T11:55:00;9.23;;;3.10;;
71360;SDS011;59166;48.908;1.870;2023-04-26T12:00:25;12.15;;;3.58;;
71360;SDS011;59166;48.908;1.870;2023-04-26T12:05:26;12.53;;;3.63;;
71360;SDS011;59166;48.908;1.870;2023-04-26T12:10:30;8.40;;;3.13;;
71360;SDS011;59166;48.908;1.870;2023-04-26T12:15:33;10.27;;;3.25;;
71360;SDS011;59166;48.908;1.870;2023-04-26T12:20:34;8.82;;;3.30;;
71360;SDS011;59166;48.908;1.870;2023-04-26T12:25:37;12.13;;;3.20;;
71360;SDS011;59166;48.908;1.870;2023-04-26T12:30:40;10.52;;;3.17;;
71360;SDS011;59166;48.908;1.870;2023-04-26T12:35:41;8.85;;;3.00;;
71360;SDS011;59166;48.908;1.870;2023-04-26T12:40:45;9.47;;;3.00;;
71360;SDS011;59166;48.908;1.870;2023-04-26T12:45:47;9.15;;;3.00;;
71360;SDS011;59166;48.908;1.870;2023-04-26T12:50:48;10.77;;;3.00;;
71360;SDS011;59166;48.908;1.870;2023-04-26T12:55:49;10.10;;;2.87;;
71360;SDS011;59166;48.908;1.870;2023-04-26T13:00:51;9.25;;;3.00;;
71360;SDS011;59166;48.908;1.870;2023-04-26T13:05:52;8.87;;;2.93;;
71360;SDS011;59166;48.908;1.870;2023-04-26T13:10:53;8.32;;;2.80;;
71360;SDS011;59166;48.908;1.870;2023-04-26T13:15:55;9.32;;;2.80;;
71360;SDS011;59166;48.908;1.870;2023-04-26T13:20:56;7.57;;;3.03;;
71360;SDS011;59166;48.908;1.870;2023-04-26T13:25:57;9.38;;;2.97;;
71360;SDS011;59166;48.908;1.870;2023-04-26T13:30:59;7.50;;;2.47;;
71360;SDS011;59166;48.908;1.870;2023-04-26T13:36:00;10.32;;;2.60;;
71360;SDS011;59166;48.908;1.870;2023-04-26T13:41:03;7.60;;;2.43;;
71360;SDS011;59166;48.908;1.870;2023-04-26T13:46:05;8.87;;;2.90;;
71360;SDS011;59166;48.908;1.870;2023-04-26T13:51:06;8.45;;;2.70;;
71360;SDS011;59166;48.908;1.870;2023-04-26T13:56:07;8.13;;;2.80;;
71360;SDS011;59166;48.908;1.870;2023-04-26T14:01:09;10.43;;;2.72;;
71360;SDS011;59166;48.908;1.870;2023-04-26T14:06:12;9.20;;;2.90;;
71360;SDS011;59166;48.908;1.870;2023-04-26T14:11:16;8.98;;;2.97;;
71360;SDS011;59166;48.908;1.870;2023-04-26T14:16:18;8.13;;;3.08;;
71360;SDS011;59166;48.908;1.870;2023-04-26T14:21:19;10.10;;;3.23;;
71360;SDS011;59166;48.908;1.870;2023-04-26T14:26:20;8.88;;;3.15;;
71360;SDS011;59166;48.908;1.870;2023-04-26T14:31:22;9.10;;;3.13;;
71360;SDS011;59166;48.908;1.870;2023-04-26T14:36:23;8.43;;;3.17;;
71360;SDS011;59166;48.908;1.870;2023-04-26T14:41:24;11.65;;;3.08;;
71360;SDS011;59166;48.908;1.870;2023-04-26T14:46:26;11.53;;;3.40;;
71360;SDS011;59166;48.908;1.870;2023-04-26T14:51:27;9.35;;;3.20;;
71360;SDS011;59166;48.908;1.870;2023-04-26T14:56:30;8.80;;;3.30;;
71360;SDS011;59166;48.908;1.870;2023-04-26T15:01:37;9.63;;;3.10;;
71360;SDS011;59166;48.908;1.870;2023-04-26T15:06:37;10.63;;;3.35;;
71360;SDS011;59166;48.908;1.870;2023-04-26T15:11:38;11.07;;;3.50;;
71360;SDS011;59166;48.908;1.870;2023-04-26T15:16:40;10.43;;;3.13;;
71360;SDS011;59166;48.908;1.870;2023-04-26T15:21:41;7.20;;;2.80;;
71360;SDS011;59166;48.908;1.870;2023-04-26T15:26:42;9.55;;;3.08;;
71360;SDS011;59166;48.908;1.870;2023-04-26T15:31:44;8.33;;;2.80;;
71360;SDS011;59166;48.908;1.870;2023-04-26T15:36:45;7.65;;;3.03;;
71360;SDS011;59166;48.908;1.870;2023-04-26T15:41:45;10.70;;;3.40;;
71360;SDS011;59166;48.908;1.870;2023-04-26T15:46:48;11.88;;;3.28;;
71360;SDS011;59166;48.908;1.870;2023-04-26T15:51:48;9.53;;;3.40;;
71360;SDS011;59166;48.908;1.870;2023-04-26T15:56:49;8.50;;;3.30;;
71360;SDS011;59166;48.908;1.870;2023-04-26T16:01:52;10.43;;;3.43;;
71360;SDS011;59166;48.908;1.870;2023-04-26T16:06:52;10.45;;;3.17;;
71360;SDS011;59166;48.908;1.870;2023-04-26T16:11:53;8.80;;;3.30;;
71360;SDS011;59166;48.908;1.870;2023-04-26T16:16:55;11.40;;;3.60;;
71360;SDS011;59166;48.908;1.870;2023-04-26T16:21:56;9.20;;;3.28;;
71360;SDS011;59166;48.908;1.870;2023-04-26T16:26:57;9.10;;;3.20;;
71360;SDS011;59166;48.908;1.870;2023-04-26T16:31:59;11.05;;;3.40;;
71360;SDS011;59166;48.908;1.870;2023-04-26T16:37:00;10.63;;;3.30;;
71360;SDS011;59166;48.908;1.870;2023-04-26T16:42:01;8.65;;;2.83;;
71360;SDS011;59166;48.908;1.870;2023-04-26T16:47:03;9.70;;;3.40;;
71360;SDS011;59166;48.908;1.870;2023-04-26T16:52:04;9.25;;;3.35;;
71360;SDS011;59166;48.908;1.870;2023-04-26T16:57:05;10.60;;;4.60;;
71360;SDS011;59166;48.908;1.870;2023-04-26T17:02:07;10.48;;;3.50;;
71360;SDS011;59166;48.908;1.870;2023-04-26T17:07:08;8.60;;;2.90;;
71360;SDS011;59166;48.908;1.870;2023-04-26T17:12:09;8.98;;;3.40;;
71360;SDS011;59166;48.908;1.870;2023-04-26T17:17:11;9.23;;;3.40;;
71360;SDS011;59166;48.908;1.870;2023-04-26T17:22:12;9.18;;;4.07;;
71360;SDS011;59166;48.908;1.870;2023-04-26T17:27:12;8.70;;;3.40;;
71360;SDS011;59166;48.908;1.870;2023-04-26T17:32:15;11.57;;;4.40;;
71360;SDS011;59166;48.908;1.870;2023-04-26T17:37:15;9.50;;;3.50;;
71360;SDS011;59166;48.908;1.870;2023-04-26T17:42:16;10.83;;;3.50;;
71360;SDS011;59166;48.908;1.870;2023-04-26T17:47:18;12.03;;;4.50;;
71360;SDS011;59166;48.908;1.870;2023-04-26T17:52:19;9.90;;;3.70;;
71360;SDS011;59166;48.908;1.870;2023-04-26T17:57:20;10.73;;;3.53;;
71360;SDS011;59166;48.908;1.870;2023-04-26T18:02:24;10.73;;;4.77;;
71360;SDS011;59166;48.908;1.870;2023-04-26T18:07:25;12.27;;;5.13;;
71360;SDS011;59166;48.908;1.870;2023-04-26T18:12:26;14.35;;;5.20;;
71360;SDS011;59166;48.908;1.870;2023-04-26T18:17:29;13.00;;;5.20;;
71360;SDS011;59166;48.908;1.870;2023-04-26T18:22:30;13.85;;;5.88;;
71360;SDS011;59166;48.908;1.870;2023-04-26T18:27:31;14.10;;;5.80;;
71360;SDS011;59166;48.908;1.870;2023-04-26T18:32:34;13.32;;;5.57;;
71360;SDS011;59166;48.908;1.870;2023-04-26T18:37:36;15.30;;;6.00;;
71360;SDS011;59166;48.908;1.870;2023-04-26T18:42:36;12.10;;;5.03;;
71360;SDS011;59166;48.908;1.870;2023-04-26T18:47:40;12.47;;;5.50;;
71360;SDS011;59166;48.908;1.870;2023-04-26T18:52:41;12.15;;;4.93;;
71360;SDS011;59166;48.908;1.870;2023-04-26T18:57:42;12.07;;;4.90;;
71360;SDS011;59166;48.908;1.870;2023-04-26T19:02:44;13.23;;;5.05;;
71360;SDS011;59166;48.908;1.870;2023-04-26T19:07:45;13.27;;;5.13;;
71360;SDS011;59166;48.908;1.870;2023-04-26T19:12:46;13.63;;;5.10;;
71360;SDS011;59166;48.908;1.870;2023-04-26T19:17:48;10.48;;;4.78;;
71360;SDS011;59166;48.908;1.870;2023-04-26T19:22:49;12.10;;;4.50;;
71360;SDS011;59166;48.908;1.870;2023-04-26T19:27:50;10.85;;;4.50;;
71360;SDS011;59166;48.908;1.870;2023-04-26T19:32:52;13.10;;;5.17;;
71360;SDS011;59166;48.908;1.870;2023-04-26T19:37:53;12.15;;;5.70;;
71360;SDS011;59166;48.908;1.870;2023-04-26T19:42:53;11.63;;;5.00;;
71360;SDS011;59166;48.908;1.870;2023-04-26T19:47:56;12.27;;;5.32;;
71360;SDS011;59166;48.908;1.870;2023-04-26T19:52:56;10.23;;;4.60;;
71360;SDS011;59166;48.908;1.870;2023-04-26T19:57:57;11.15;;;4.45;;
71360;SDS011;59166;48.908;1.870;2023-04-26T20:02:59;12.73;;;5.27;;
71360;SDS011;59166;48.908;1.870;2023-04-26T20:08:00;12.38;;;5.25;;
71360;SDS011;59166;48.908;1.870;2023-04-26T20:13:01;10.30;;;4.27;;
71360;SDS011;59166;48.908;1.870;2023-04-26T20:18:04;10.13;;;4.45;;
71360;SDS011;59166;48.908;1.870;2023-04-26T20:23:04;11.63;;;4.63;;
71360;SDS011;59166;48.908;1.870;2023-04-26T20:28:05;11.45;;;4.90;;
71360;SDS011;59166;48.908;1.870;2023-04-26T20:33:07;11.60;;;4.80;;
71360;SDS011;59166;48.908;1.870;2023-04-26T20:38:08;12.57;;;5.30;;
71360;SDS011;59166;48.908;1.870;2023-04-26T20:43:09;11.40;;;4.80;;
71360;SDS011;59166;48.908;1.870;2023-04-26T20:48:11;11.07;;;4.30;;
71360;SDS011;59166;48.908;1.870;2023-04-26T20:53:12;10.77;;;4.57;;
71360;SDS011;59166;48.908;1.870;2023-04-26T20:58:12;11.40;;;4.53;;
71360;SDS011;59166;48.908;1.870;2023-04-26T21:03:15;10.40;;;4.80;;
71360;SDS011;59166;48.908;1.870;2023-04-26T21:08:15;13.38;;;4.70;;
71360;SDS011;59166;48.908;1.870;2023-04-26T21:13:16;12.65;;;4.32;;
71360;SDS011;59166;48.908;1.870;2023-04-26T21:18:18;12.30;;;4.77;;
71360;SDS011;59166;48.908;1.870;2023-04-26T21:23:19;11.18;;;4.30;;
71360;SDS011;59166;48.908;1.870;2023-04-26T21:28:20;11.23;;;4.23;;
71360;SDS011;59166;48.908;1.870;2023-04-26T21:33:22;12.10;;;5.13;;
71360;SDS011;59166;48.908;1.870;2023-04-26T21:38:23;12.13;;;4.80;;
71360;SDS011;59166;48.908;1.870;2023-04-26T21:43:24;11.48;;;4.97;;
71360;SDS011;59166;48.908;1.870;2023-04-26T21:48:26;11.03;;;4.80;;
71360;SDS011;59166;48.908;1.870;2023-04-26T21:53:27;14.13;;;5.05;;
71360;SDS011;59166;48.908;1.870;2023-04-26T21:58:27;13.13;;;5.03;;
71360;SDS011;59166;48.908;1.870;2023-04-26T22:03:30;10.82;;;4.93;;
71360;SDS011;59166;48.908;1.870;2023-04-26T22:08:31;12.50;;;4.80;;
71360;SDS011;59166;48.908;1.870;2023-04-26T22:13:31;14.20;;;5.10;;
71360;SDS011;59166;48.908;1.870;2023-04-26T22:18:34;11.93;;;4.83;;
71360;SDS011;59166;48.908;1.870;2023-04-26T22:23:34;13.10;;;5.30;;
71360;SDS011;59166;48.908;1.870;2023-04-26T22:28:35;11.88;;;5.30;;
71360;SDS011;59166;48.908;1.870;2023-04-26T22:33:37;12.57;;;5.37;;
71360;SDS011;59166;48.908;1.870;2023-04-26T22:38:38;13.48;;;4.70;;
71360;SDS011;59166;48.908;1.870;2023-04-26T22:43:39;12.27;;;5.07;;
71360;SDS011;59166;48.908;1.870;2023-04-26T22:48:41;16.65;;;5.55;;
71360;SDS011;59166;48.908;1.870;2023-04-26T22:53:42;10.90;;;4.80;;
71360;SDS011;59166;48.908;1.870;2023-04-26T22:58:43;10.10;;;4.25;;
71360;SDS011;59166;48.908;1.870;2023-04-26T23:03:45;13.37;;;4.80;;
71360;SDS011;59166;48.908;1.870;2023-04-26T23:08:45;11.10;;;4.97;;
71360;SDS011;59166;48.908;1.870;2023-04-26T23:13:46;11.33;;;4.77;;
71360;SDS011;59166;48.908;1.870;2023-04-26T23:18:49;12.68;;;5.03;;
71360;SDS011;59166;48.908;1.870;2023-04-26T23:23:49;11.98;;;5.00;;
71360;SDS011;59166;48.908;1.870;2023-04-26T23:28:50;10.80;;;4.90;;
71360;SDS011;59166;48.908;1.870;2023-04-26T23:33:52;12.80;;;5.53;;
71360;SDS011;59166;48.908;1.870;2023-04-26T23:38:53;18.20;;;6.53;;
71360;SDS011;59166;48.908;1.870;2023-04-26T23:43:54;13.95;;;6.00;;
71360;SDS011;59166;48.908;1.870;2023-04-26T23:48:56;16.97;;;6.40;;
71360;SDS011;59166;48.908;1.870;2023-04-26T23:53:57;16.15;;;6.45;;
71360;SDS011;59166;48.908;1.870;2023-04-26T23:58:58;14.07;;;6.03;;
